sensor_id;sensor_type;location;lat;lon;timestamp;P1;durP1;ratioP1;P2;durP2;ratioP2
79373;SDS011;68844;53.128;17.958;2023-09-07T00:00:49;1.90;;;1.70;;
79373;SDS011;68844;53.128;17.958;2023-09-07T00:03:34;2.20;;;2.00;;
79373;SDS011;68844;53.128;17.958;2023-09-07T00:06:07;2.20;;;1.90;;
79373;SDS011;68844;53.128;17.958;2023-09-07T00:08:36;2.40;;;1.70;;
79373;SDS011;68844;53.128;17.958;2023-09-07T00:11:05;3.10;;;1.80;;
79373;SDS011;68844;53.128;17.958;2023-09-07T00:13:33;2.20;;;1.50;;
79373;SDS011;68844;53.128;17.958;2023-09-07T00:16:00;2.00;;;1.60;;
79373;SDS011;68844;53.128;17.958;2023-09-07T00:18:31;2.60;;;1.70;;
79373;SDS011;68844;53.128;17.958;2023-09-07T00:20:59;2.20;;;1.50;;
79373;SDS011;68844;53.128;17.958;2023-09-07T00:23:27;2.10;;;1.90;;
79373;SDS011;68844;53.128;17.958;2023-09-07T00:25:54;2.00;;;1.70;;
79373;SDS011;68844;53.128;17.958;2023-09-07T00:28:22;2.70;;;2.00;;
79373;SDS011;68844;53.128;17.958;2023-09-07T00:30:49;2.50;;;1.90;;
79373;SDS011;68844;53.128;17.958;2023-09-07T00:33:15;1.90;;;1.50;;
79373;SDS011;68844;53.128;17.958;2023-09-07T00:35:42;2.50;;;2.00;;
79373;SDS011;68844;53.128;17.958;2023-09-07T00:38:09;2.20;;;1.70;;
79373;SDS011;68844;53.128;17.958;2023-09-07T00:40:38;2.30;;;1.80;;
79373;SDS011;68844;53.128;17.958;2023-09-07T00:43:04;2.60;;;2.30;;
79373;SDS011;68844;53.128;17.958;2023-09-07T00:45:31;2.40;;;1.90;;
79373;SDS011;68844;53.128;17.958;2023-09-07T00:47:59;2.80;;;1.80;;
79373;SDS011;68844;53.128;17.958;2023-09-07T00:50:26;3.80;;;2.20;;
79373;SDS011;68844;53.128;17.958;2023-09-07T00:52:53;2.90;;;2.60;;
79373;SDS011;68844;53.128;17.958;2023-09-07T00:55:20;1.70;;;1.60;;
79373;SDS011;68844;53.128;17.958;2023-09-07T00:57:49;1.80;;;1.00;;
79373;SDS011;68844;53.128;17.958;2023-09-07T01:00:16;2.20;;;2.00;;
79373;SDS011;68844;53.128;17.958;2023-09-07T01:02:42;2.60;;;2.10;;
79373;SDS011;68844;53.128;17.958;2023-09-07T01:05:11;2.30;;;1.80;;
79373;SDS011;68844;53.128;17.958;2023-09-07T01:07:49;2.20;;;2.00;;
79373;SDS011;68844;53.128;17.958;2023-09-07T01:10:23;2.10;;;1.90;;
79373;SDS011;68844;53.128;17.958;2023-09-07T01:12:50;2.30;;;1.90;;
79373;SDS011;68844;53.128;17.958;2023-09-07T01:15:17;1.90;;;1.70;;
79373;SDS011;68844;53.128;17.958;2023-09-07T01:17:44;2.30;;;2.10;;
79373;SDS011;68844;53.128;17.958;2023-09-07T01:20:12;2.60;;;2.40;;
79373;SDS011;68844;53.128;17.958;2023-09-07T01:22:40;2.60;;;2.40;;
79373;SDS011;68844;53.128;17.958;2023-09-07T01:25:08;2.30;;;2.10;;
79373;SDS011;68844;53.128;17.958;2023-09-07T01:27:35;2.50;;;1.90;;
79373;SDS011;68844;53.128;17.958;2023-09-07T01:30:02;2.90;;;2.60;;
79373;SDS011;68844;53.128;17.958;2023-09-07T01:32:30;3.00;;;2.70;;
79373;SDS011;68844;53.128;17.958;2023-09-07T01:34:57;3.00;;;2.70;;
79373;SDS011;68844;53.128;17.958;2023-09-07T01:37:24;2.70;;;2.50;;
79373;SDS011;68844;53.128;17.958;2023-09-07T01:39:51;2.80;;;2.60;;
79373;SDS011;68844;53.128;17.958;2023-09-07T01:42:18;4.50;;;3.60;;
79373;SDS011;68844;53.128;17.958;2023-09-07T01:44:44;3.90;;;3.60;;
79373;SDS011;68844;53.128;17.958;2023-09-07T01:47:11;4.50;;;4.10;;
79373;SDS011;68844;53.128;17.958;2023-09-07T01:49:38;2.40;;;2.20;;
79373;SDS011;68844;53.128;17.958;2023-09-07T01:52:05;3.20;;;2.90;;
79373;SDS011;68844;53.128;17.958;2023-09-07T01:54:32;2.80;;;2.50;;
79373;SDS011;68844;53.128;17.958;2023-09-07T01:56:59;3.20;;;2.90;;
79373;SDS011;68844;53.128;17.958;2023-09-07T01:59:25;4.30;;;3.90;;
79373;SDS011;68844;53.128;17.958;2023-09-07T02:01:52;5.50;;;4.90;;
79373;SDS011;68844;53.128;17.958;2023-09-07T02:04:19;3.90;;;3.20;;
79373;SDS011;68844;53.128;17.958;2023-09-07T02:06:45;4.90;;;4.50;;
79373;SDS011;68844;53.128;17.958;2023-09-07T02:09:12;5.70;;;5.00;;
79373;SDS011;68844;53.128;17.958;2023-09-07T02:11:39;4.10;;;3.70;;
79373;SDS011;68844;53.128;17.958;2023-09-07T02:14:07;5.40;;;4.80;;
79373;SDS011;68844;53.128;17.958;2023-09-07T02:16:35;3.10;;;2.70;;
79373;SDS011;68844;53.128;17.958;2023-09-07T02:19:02;5.10;;;4.40;;
79373;SDS011;68844;53.128;17.958;2023-09-07T02:21:30;4.90;;;4.40;;
79373;SDS011;68844;53.128;17.958;2023-09-07T02:23:57;6.00;;;5.30;;
79373;SDS011;68844;53.128;17.958;2023-09-07T02:26:24;5.10;;;4.50;;
79373;SDS011;68844;53.128;17.958;2023-09-07T02:28:51;5.40;;;4.90;;
79373;SDS011;68844;53.128;17.958;2023-09-07T02:31:17;5.70;;;4.90;;
79373;SDS011;68844;53.128;17.958;2023-09-07T02:33:44;5.90;;;5.30;;
79373;SDS011;68844;53.128;17.958;2023-09-07T02:36:12;4.20;;;3.60;;
79373;SDS011;68844;53.128;17.958;2023-09-07T02:38:38;6.10;;;5.50;;
79373;SDS011;68844;53.128;17.958;2023-09-07T02:41:05;3.40;;;2.80;;
79373;SDS011;68844;53.128;17.958;2023-09-07T02:43:33;5.00;;;4.50;;
79373;SDS011;68844;53.128;17.958;2023-09-07T02:46:00;3.90;;;3.50;;
79373;SDS011;68844;53.128;17.958;2023-09-07T02:48:27;6.60;;;5.90;;
79373;SDS011;68844;53.128;17.958;2023-09-07T02:50:53;5.70;;;5.20;;
79373;SDS011;68844;53.128;17.958;2023-09-07T02:53:22;4.80;;;4.30;;
79373;SDS011;68844;53.128;17.958;2023-09-07T02:55:48;7.10;;;6.30;;
79373;SDS011;68844;53.128;17.958;2023-09-07T02:58:15;3.80;;;3.40;;
79373;SDS011;68844;53.128;17.958;2023-09-07T03:00:42;6.40;;;5.80;;
79373;SDS011;68844;53.128;17.958;2023-09-07T03:03:14;5.10;;;4.60;;
79373;SDS011;68844;53.128;17.958;2023-09-07T03:05:42;4.70;;;4.30;;
79373;SDS011;68844;53.128;17.958;2023-09-07T03:08:09;4.80;;;4.30;;
79373;SDS011;68844;53.128;17.958;2023-09-07T03:10:36;6.50;;;5.90;;
79373;SDS011;68844;53.128;17.958;2023-09-07T03:13:07;3.00;;;2.70;;
79373;SDS011;68844;53.128;17.958;2023-09-07T03:15:34;6.20;;;5.60;;
79373;SDS011;68844;53.128;17.958;2023-09-07T03:18:04;6.20;;;5.60;;
79373;SDS011;68844;53.128;17.958;2023-09-07T03:20:32;4.30;;;3.90;;
79373;SDS011;68844;53.128;17.958;2023-09-07T03:23:00;2.40;;;2.20;;
79373;SDS011;68844;53.128;17.958;2023-09-07T03:25:28;4.50;;;4.10;;
79373;SDS011;68844;53.128;17.958;2023-09-07T03:27:54;3.50;;;3.20;;
79373;SDS011;68844;53.128;17.958;2023-09-07T03:30:21;3.70;;;3.30;;
79373;SDS011;68844;53.128;17.958;2023-09-07T03:32:48;6.00;;;5.40;;
79373;SDS011;68844;53.128;17.958;2023-09-07T03:35:14;5.20;;;4.70;;
79373;SDS011;68844;53.128;17.958;2023-09-07T03:37:42;4.70;;;4.20;;
79373;SDS011;68844;53.128;17.958;2023-09-07T03:40:09;4.40;;;4.00;;
79373;SDS011;68844;53.128;17.958;2023-09-07T03:42:36;4.00;;;3.60;;
79373;SDS011;68844;53.128;17.958;2023-09-07T03:45:03;4.80;;;4.20;;
79373;SDS011;68844;53.128;17.958;2023-09-07T03:47:32;5.50;;;5.00;;
79373;SDS011;68844;53.128;17.958;2023-09-07T03:50:00;2.80;;;2.60;;
79373;SDS011;68844;53.128;17.958;2023-09-07T03:52:27;4.30;;;3.90;;
79373;SDS011;68844;53.128;17.958;2023-09-07T03:54:54;6.00;;;5.40;;
79373;SDS011;68844;53.128;17.958;2023-09-07T03:57:25;4.50;;;4.10;;
79373;SDS011;68844;53.128;17.958;2023-09-07T03:59:52;4.50;;;4.10;;
79373;SDS011;68844;53.128;17.958;2023-09-07T04:02:19;5.00;;;4.50;;
79373;SDS011;68844;53.128;17.958;2023-09-07T04:04:49;4.90;;;4.50;;
79373;SDS011;68844;53.128;17.958;2023-09-07T04:07:16;4.10;;;3.70;;
79373;SDS011;68844;53.128;17.958;2023-09-07T04:09:46;3.30;;;3.00;;
79373;SDS011;68844;53.128;17.958;2023-09-07T04:12:13;5.10;;;4.70;;
79373;SDS011;68844;53.128;17.958;2023-09-07T04:14:40;4.40;;;4.00;;
79373;SDS011;68844;53.128;17.958;2023-09-07T04:17:08;5.10;;;4.60;;
79373;SDS011;68844;53.128;17.958;2023-09-07T04:19:35;5.60;;;5.00;;
79373;SDS011;68844;53.128;17.958;2023-09-07T04:22:02;2.60;;;2.40;;
79373;SDS011;68844;53.128;17.958;2023-09-07T04:24:29;4.00;;;2.90;;
79373;SDS011;68844;53.128;17.958;2023-09-07T04:27:00;3.90;;;3.60;;
79373;SDS011;68844;53.128;17.958;2023-09-07T04:29:27;5.10;;;4.60;;
79373;SDS011;68844;53.128;17.958;2023-09-07T04:31:54;4.10;;;3.70;;
79373;SDS011;68844;53.128;17.958;2023-09-07T04:34:21;4.90;;;4.40;;
79373;SDS011;68844;53.128;17.958;2023-09-07T04:36:49;4.20;;;3.80;;
79373;SDS011;68844;53.128;17.958;2023-09-07T04:39:16;2.30;;;1.70;;
79373;SDS011;68844;53.128;17.958;2023-09-07T04:41:43;5.30;;;4.80;;
79373;SDS011;68844;53.128;17.958;2023-09-07T04:44:09;4.50;;;4.10;;
79373;SDS011;68844;53.128;17.958;2023-09-07T04:46:36;5.00;;;4.30;;
79373;SDS011;68844;53.128;17.958;2023-09-07T04:49:03;4.40;;;4.00;;
79373;SDS011;68844;53.128;17.958;2023-09-07T04:51:29;5.20;;;4.70;;
79373;SDS011;68844;53.128;17.958;2023-09-07T04:53:56;3.60;;;3.20;;
79373;SDS011;68844;53.128;17.958;2023-09-07T04:56:23;4.50;;;4.10;;
79373;SDS011;68844;53.128;17.958;2023-09-07T04:58:52;4.30;;;3.90;;
79373;SDS011;68844;53.128;17.958;2023-09-07T05:01:18;4.20;;;3.80;;
79373;SDS011;68844;53.128;17.958;2023-09-07T05:03:45;4.90;;;4.50;;
79373;SDS011;68844;53.128;17.958;2023-09-07T05:06:12;5.30;;;4.70;;
79373;SDS011;68844;53.128;17.958;2023-09-07T05:08:41;4.80;;;4.40;;
79373;SDS011;68844;53.128;17.958;2023-09-07T05:11:07;3.80;;;3.50;;
79373;SDS011;68844;53.128;17.958;2023-09-07T05:13:34;3.60;;;3.00;;
79373;SDS011;68844;53.128;17.958;2023-09-07T05:16:01;2.60;;;2.30;;
79373;SDS011;68844;53.128;17.958;2023-09-07T05:18:28;3.80;;;3.40;;
79373;SDS011;68844;53.128;17.958;2023-09-07T05:20:56;4.60;;;4.20;;
79373;SDS011;68844;53.128;17.958;2023-09-07T05:23:23;4.50;;;4.10;;
79373;SDS011;68844;53.128;17.958;2023-09-07T05:25:53;4.30;;;3.70;;
79373;SDS011;68844;53.128;17.958;2023-09-07T05:28:22;4.30;;;3.90;;
79373;SDS011;68844;53.128;17.958;2023-09-07T05:30:50;3.80;;;3.40;;
79373;SDS011;68844;53.128;17.958;2023-09-07T05:33:17;2.80;;;2.60;;
79373;SDS011;68844;53.128;17.958;2023-09-07T05:35:45;4.30;;;3.90;;
79373;SDS011;68844;53.128;17.958;2023-09-07T05:38:12;3.40;;;2.90;;
79373;SDS011;68844;53.128;17.958;2023-09-07T05:40:44;4.80;;;4.40;;
79373;SDS011;68844;53.128;17.958;2023-09-07T05:43:11;3.80;;;3.50;;
79373;SDS011;68844;53.128;17.958;2023-09-07T05:45:39;2.50;;;1.90;;
79373;SDS011;68844;53.128;17.958;2023-09-07T05:48:07;3.90;;;3.50;;
79373;SDS011;68844;53.128;17.958;2023-09-07T05:50:36;2.90;;;2.70;;
79373;SDS011;68844;53.128;17.958;2023-09-07T05:53:04;3.20;;;2.90;;
79373;SDS011;68844;53.128;17.958;2023-09-07T05:55:31;2.30;;;1.70;;
79373;SDS011;68844;53.128;17.958;2023-09-07T05:57:59;4.20;;;3.80;;
79373;SDS011;68844;53.128;17.958;2023-09-07T06:00:27;2.20;;;1.60;;
79373;SDS011;68844;53.128;17.958;2023-09-07T06:02:53;3.30;;;3.00;;
79373;SDS011;68844;53.128;17.958;2023-09-07T06:05:20;3.80;;;3.40;;
79373;SDS011;68844;53.128;17.958;2023-09-07T06:07:47;2.80;;;2.60;;
79373;SDS011;68844;53.128;17.958;2023-09-07T06:10:15;4.10;;;2.60;;
79373;SDS011;68844;53.128;17.958;2023-09-07T06:12:45;3.10;;;2.80;;
79373;SDS011;68844;53.128;17.958;2023-09-07T06:15:11;3.10;;;2.50;;
79373;SDS011;68844;53.128;17.958;2023-09-07T06:17:38;5.80;;;3.90;;
79373;SDS011;68844;53.128;17.958;2023-09-07T06:20:05;3.00;;;2.70;;
79373;SDS011;68844;53.128;17.958;2023-09-07T06:22:32;2.20;;;1.80;;
79373;SDS011;68844;53.128;17.958;2023-09-07T06:24:59;3.50;;;3.20;;
79373;SDS011;68844;53.128;17.958;2023-09-07T06:27:25;2.00;;;1.90;;
79373;SDS011;68844;53.128;17.958;2023-09-07T06:29:52;2.30;;;2.10;;
79373;SDS011;68844;53.128;17.958;2023-09-07T06:32:19;2.70;;;2.50;;
79373;SDS011;68844;53.128;17.958;2023-09-07T06:34:46;4.10;;;2.40;;
79373;SDS011;68844;53.128;17.958;2023-09-07T06:37:14;2.00;;;1.60;;
79373;SDS011;68844;53.128;17.958;2023-09-07T06:39:40;2.90;;;2.60;;
79373;SDS011;68844;53.128;17.958;2023-09-07T06:42:10;3.20;;;2.70;;
79373;SDS011;68844;53.128;17.958;2023-09-07T06:44:45;2.30;;;2.10;;
79373;SDS011;68844;53.128;17.958;2023-09-07T06:47:13;3.90;;;2.90;;
79373;SDS011;68844;53.128;17.958;2023-09-07T06:49:40;3.00;;;2.70;;
79373;SDS011;68844;53.128;17.958;2023-09-07T06:52:07;2.90;;;2.60;;
79373;SDS011;68844;53.128;17.958;2023-09-07T06:54:35;2.80;;;2.50;;
79373;SDS011;68844;53.128;17.958;2023-09-07T06:57:02;2.40;;;2.20;;
79373;SDS011;68844;53.128;17.958;2023-09-07T06:59:29;3.20;;;2.90;;
79373;SDS011;68844;53.128;17.958;2023-09-07T07:01:55;3.40;;;3.10;;
79373;SDS011;68844;53.128;17.958;2023-09-07T07:04:26;2.70;;;2.50;;
79373;SDS011;68844;53.128;17.958;2023-09-07T07:06:52;2.60;;;1.60;;
79373;SDS011;68844;53.128;17.958;2023-09-07T07:09:20;1.30;;;0.90;;
79373;SDS011;68844;53.128;17.958;2023-09-07T07:11:47;2.30;;;2.10;;
79373;SDS011;68844;53.128;17.958;2023-09-07T07:14:15;2.00;;;1.80;;
79373;SDS011;68844;53.128;17.958;2023-09-07T07:16:44;2.70;;;2.40;;
79373;SDS011;68844;53.128;17.958;2023-09-07T07:19:10;2.70;;;2.20;;
79373;SDS011;68844;53.128;17.958;2023-09-07T07:21:37;2.00;;;1.80;;
79373;SDS011;68844;53.128;17.958;2023-09-07T07:24:06;2.70;;;2.50;;
79373;SDS011;68844;53.128;17.958;2023-09-07T07:29:01;2.60;;;2.20;;
79373;SDS011;68844;53.128;17.958;2023-09-07T07:31:30;2.30;;;2.10;;
79373;SDS011;68844;53.128;17.958;2023-09-07T07:33:56;2.60;;;2.40;;
79373;SDS011;68844;53.128;17.958;2023-09-07T07:36:23;2.40;;;2.20;;
79373;SDS011;68844;53.128;17.958;2023-09-07T07:38:50;2.70;;;2.50;;
79373;SDS011;68844;53.128;17.958;2023-09-07T07:41:16;1.90;;;1.80;;
79373;SDS011;68844;53.128;17.958;2023-09-07T07:43:43;2.90;;;2.40;;
79373;SDS011;68844;53.128;17.958;2023-09-07T07:46:10;1.90;;;1.80;;
79373;SDS011;68844;53.128;17.958;2023-09-07T07:48:38;2.30;;;2.10;;
79373;SDS011;68844;53.128;17.958;2023-09-07T07:51:05;2.60;;;2.40;;
79373;SDS011;68844;53.128;17.958;2023-09-07T07:53:33;2.40;;;2.20;;
79373;SDS011;68844;53.128;17.958;2023-09-07T07:55:59;2.00;;;1.80;;
79373;SDS011;68844;53.128;17.958;2023-09-07T07:58:26;2.50;;;2.30;;
79373;SDS011;68844;53.128;17.958;2023-09-07T08:00:53;2.60;;;2.20;;
79373;SDS011;68844;53.128;17.958;2023-09-07T08:03:25;2.30;;;2.10;;
79373;SDS011;68844;53.128;17.958;2023-09-07T08:05:52;2.30;;;2.10;;
79373;SDS011;68844;53.128;17.958;2023-09-07T08:08:18;2.00;;;1.80;;
79373;SDS011;68844;53.128;17.958;2023-09-07T08:10:45;2.80;;;2.20;;
79373;SDS011;68844;53.128;17.958;2023-09-07T08:13:13;2.30;;;2.10;;
79373;SDS011;68844;53.128;17.958;2023-09-07T08:18:07;1.60;;;1.50;;
79373;SDS011;68844;53.128;17.958;2023-09-07T08:20:35;1.80;;;1.40;;
79373;SDS011;68844;53.128;17.958;2023-09-07T08:23:03;1.50;;;1.40;;
79373;SDS011;68844;53.128;17.958;2023-09-07T08:25:34;1.50;;;1.40;;
79373;SDS011;68844;53.128;17.958;2023-09-07T08:28:01;1.20;;;1.10;;
79373;SDS011;68844;53.128;17.958;2023-09-07T08:30:32;1.60;;;1.40;;
79373;SDS011;68844;53.128;17.958;2023-09-07T08:33:00;2.30;;;1.00;;
79373;SDS011;68844;53.128;17.958;2023-09-07T08:35:28;1.60;;;1.30;;
79373;SDS011;68844;53.128;17.958;2023-09-07T08:37:55;1.30;;;1.10;;
79373;SDS011;68844;53.128;17.958;2023-09-07T08:40:25;1.40;;;1.30;;
79373;SDS011;68844;53.128;17.958;2023-09-07T08:42:53;1.70;;;1.20;;
79373;SDS011;68844;53.128;17.958;2023-09-07T08:45:21;1.50;;;1.40;;
79373;SDS011;68844;53.128;17.958;2023-09-07T08:47:52;2.00;;;1.10;;
79373;SDS011;68844;53.128;17.958;2023-09-07T08:50:21;1.90;;;1.60;;
79373;SDS011;68844;53.128;17.958;2023-09-07T08:52:51;2.60;;;1.30;;
79373;SDS011;68844;53.128;17.958;2023-09-07T08:55:19;2.40;;;1.30;;
79373;SDS011;68844;53.128;17.958;2023-09-07T08:57:47;1.30;;;1.00;;
79373;SDS011;68844;53.128;17.958;2023-09-07T09:00:14;1.40;;;0.90;;
79373;SDS011;68844;53.128;17.958;2023-09-07T09:02:43;1.50;;;1.30;;
79373;SDS011;68844;53.128;17.958;2023-09-07T09:05:13;1.60;;;1.10;;
79373;SDS011;68844;53.128;17.958;2023-09-07T09:07:40;2.00;;;1.10;;
79373;SDS011;68844;53.128;17.958;2023-09-07T09:10:07;1.40;;;1.10;;
79373;SDS011;68844;53.128;17.958;2023-09-07T09:12:35;1.10;;;1.00;;
79373;SDS011;68844;53.128;17.958;2023-09-07T09:15:02;2.10;;;1.30;;
79373;SDS011;68844;53.128;17.958;2023-09-07T09:17:29;2.30;;;1.00;;
79373;SDS011;68844;53.128;17.958;2023-09-07T09:19:56;1.80;;;1.00;;
79373;SDS011;68844;53.128;17.958;2023-09-07T09:22:22;2.50;;;1.10;;
79373;SDS011;68844;53.128;17.958;2023-09-07T09:24:50;1.30;;;1.20;;
79373;SDS011;68844;53.128;17.958;2023-09-07T09:27:17;1.60;;;1.20;;
79373;SDS011;68844;53.128;17.958;2023-09-07T09:29:43;1.20;;;1.10;;
79373;SDS011;68844;53.128;17.958;2023-09-07T09:32:13;1.40;;;1.10;;
79373;SDS011;68844;53.128;17.958;2023-09-07T09:34:43;1.40;;;1.30;;
79373;SDS011;68844;53.128;17.958;2023-09-07T09:37:13;1.70;;;1.20;;
79373;SDS011;68844;53.128;17.958;2023-09-07T09:39:41;1.20;;;1.00;;
79373;SDS011;68844;53.128;17.958;2023-09-07T09:42:08;1.40;;;1.10;;
79373;SDS011;68844;53.128;17.958;2023-09-07T09:44:35;1.30;;;1.10;;
79373;SDS011;68844;53.128;17.958;2023-09-07T09:47:03;2.90;;;1.30;;
79373;SDS011;68844;53.128;17.958;2023-09-07T09:49:30;1.50;;;1.20;;
79373;SDS011;68844;53.128;17.958;2023-09-07T09:51:57;1.30;;;0.80;;
79373;SDS011;68844;53.128;17.958;2023-09-07T09:54:25;1.10;;;0.80;;
79373;SDS011;68844;53.128;17.958;2023-09-07T09:56:52;1.70;;;1.10;;
79373;SDS011;68844;53.128;17.958;2023-09-07T09:59:20;1.10;;;0.90;;
79373;SDS011;68844;53.128;17.958;2023-09-07T10:01:47;1.20;;;0.90;;
79373;SDS011;68844;53.128;17.958;2023-09-07T10:04:17;1.80;;;0.90;;
79373;SDS011;68844;53.128;17.958;2023-09-07T10:07:00;1.70;;;0.80;;
79373;SDS011;68844;53.128;17.958;2023-09-07T10:09:32;0.90;;;0.70;;
79373;SDS011;68844;53.128;17.958;2023-09-07T10:11:59;1.50;;;0.80;;
79373;SDS011;68844;53.128;17.958;2023-09-07T10:14:39;1.60;;;0.80;;
79373;SDS011;68844;53.128;17.958;2023-09-07T10:17:06;1.60;;;0.70;;
79373;SDS011;68844;53.128;17.958;2023-09-07T10:19:35;2.10;;;0.90;;
79373;SDS011;68844;53.128;17.958;2023-09-07T10:22:04;1.10;;;0.90;;
79373;SDS011;68844;53.128;17.958;2023-09-07T10:24:34;0.90;;;0.70;;
79373;SDS011;68844;53.128;17.958;2023-09-07T10:27:03;1.80;;;0.70;;
79373;SDS011;68844;53.128;17.958;2023-09-07T10:29:50;1.20;;;0.80;;
79373;SDS011;68844;53.128;17.958;2023-09-07T10:32:20;1.30;;;1.00;;
79373;SDS011;68844;53.128;17.958;2023-09-07T10:34:47;1.60;;;0.90;;
79373;SDS011;68844;53.128;17.958;2023-09-07T10:37:14;1.10;;;0.90;;
79373;SDS011;68844;53.128;17.958;2023-09-07T10:39:42;1.40;;;0.70;;
79373;SDS011;68844;53.128;17.958;2023-09-07T10:42:20;1.20;;;0.90;;
79373;SDS011;68844;53.128;17.958;2023-09-07T10:44:49;2.40;;;0.70;;
79373;SDS011;68844;53.128;17.958;2023-09-07T10:47:15;1.70;;;0.80;;
79373;SDS011;68844;53.128;17.958;2023-09-07T10:49:43;1.10;;;0.80;;
79373;SDS011;68844;53.128;17.958;2023-09-07T10:52:10;1.20;;;0.70;;
79373;SDS011;68844;53.128;17.958;2023-09-07T10:54:36;1.30;;;0.80;;
79373;SDS011;68844;53.128;17.958;2023-09-07T10:57:12;1.70;;;0.90;;
79373;SDS011;68844;53.128;17.958;2023-09-07T10:59:45;1.90;;;1.20;;
79373;SDS011;68844;53.128;17.958;2023-09-07T11:02:12;1.90;;;0.80;;
79373;SDS011;68844;53.128;17.958;2023-09-07T11:04:41;1.70;;;0.70;;
79373;SDS011;68844;53.128;17.958;2023-09-07T11:07:08;1.20;;;1.00;;
79373;SDS011;68844;53.128;17.958;2023-09-07T11:09:39;2.90;;;0.60;;
79373;SDS011;68844;53.128;17.958;2023-09-07T11:12:07;1.10;;;0.70;;
79373;SDS011;68844;53.128;17.958;2023-09-07T11:14:34;1.40;;;0.70;;
79373;SDS011;68844;53.128;17.958;2023-09-07T11:17:01;2.00;;;1.10;;
79373;SDS011;68844;53.128;17.958;2023-09-07T11:19:33;2.00;;;0.90;;
79373;SDS011;68844;53.128;17.958;2023-09-07T11:22:00;2.20;;;0.70;;
79373;SDS011;68844;53.128;17.958;2023-09-07T11:24:30;2.20;;;0.70;;
79373;SDS011;68844;53.128;17.958;2023-09-07T11:26:58;1.80;;;0.90;;
79373;SDS011;68844;53.128;17.958;2023-09-07T11:29:25;2.90;;;0.90;;
79373;SDS011;68844;53.128;17.958;2023-09-07T11:31:52;1.40;;;0.70;;
79373;SDS011;68844;53.128;17.958;2023-09-07T11:34:18;1.60;;;0.70;;
79373;SDS011;68844;53.128;17.958;2023-09-07T11:36:45;1.50;;;0.90;;
79373;SDS011;68844;53.128;17.958;2023-09-07T11:39:13;2.20;;;1.10;;
79373;SDS011;68844;53.128;17.958;2023-09-07T11:41:43;2.00;;;0.90;;
79373;SDS011;68844;53.128;17.958;2023-09-07T11:44:10;1.20;;;1.00;;
79373;SDS011;68844;53.128;17.958;2023-09-07T11:46:37;1.60;;;0.90;;
79373;SDS011;68844;53.128;17.958;2023-09-07T11:49:04;2.50;;;0.70;;
79373;SDS011;68844;53.128;17.958;2023-09-07T11:51:32;1.30;;;0.80;;
79373;SDS011;68844;53.128;17.958;2023-09-07T11:53:58;2.10;;;0.80;;
79373;SDS011;68844;53.128;17.958;2023-09-07T11:56:25;2.70;;;0.90;;
79373;SDS011;68844;53.128;17.958;2023-09-07T12:01:19;2.30;;;1.10;;
79373;SDS011;68844;53.128;17.958;2023-09-07T12:03:46;2.20;;;0.80;;
79373;SDS011;68844;53.128;17.958;2023-09-07T12:06:13;2.70;;;0.90;;
79373;SDS011;68844;53.128;17.958;2023-09-07T12:08:57;3.00;;;1.00;;
79373;SDS011;68844;53.128;17.958;2023-09-07T12:11:28;1.90;;;1.10;;
79373;SDS011;68844;53.128;17.958;2023-09-07T12:13:54;1.70;;;1.10;;
79373;SDS011;68844;53.128;17.958;2023-09-07T12:16:21;2.50;;;0.90;;
79373;SDS011;68844;53.128;17.958;2023-09-07T12:18:48;2.70;;;1.00;;
79373;SDS011;68844;53.128;17.958;2023-09-07T12:21:14;1.20;;;0.80;;
79373;SDS011;68844;53.128;17.958;2023-09-07T12:23:41;0.90;;;0.50;;
79373;SDS011;68844;53.128;17.958;2023-09-07T12:26:07;1.40;;;0.90;;
79373;SDS011;68844;53.128;17.958;2023-09-07T12:28:35;1.80;;;0.80;;
79373;SDS011;68844;53.128;17.958;2023-09-07T12:33:29;1.50;;;1.00;;
79373;SDS011;68844;53.128;17.958;2023-09-07T12:38:23;2.60;;;0.90;;
79373;SDS011;68844;53.128;17.958;2023-09-07T12:40:54;2.50;;;1.00;;
79373;SDS011;68844;53.128;17.958;2023-09-07T12:43:21;1.10;;;0.70;;
79373;SDS011;68844;53.128;17.958;2023-09-07T12:45:47;2.40;;;1.00;;
79373;SDS011;68844;53.128;17.958;2023-09-07T12:48:14;3.00;;;0.70;;
79373;SDS011;68844;53.128;17.958;2023-09-07T12:50:40;1.50;;;0.80;;
79373;SDS011;68844;53.128;17.958;2023-09-07T12:53:07;1.40;;;1.00;;
79373;SDS011;68844;53.128;17.958;2023-09-07T12:55:33;2.30;;;1.00;;
79373;SDS011;68844;53.128;17.958;2023-09-07T12:58:00;1.70;;;1.00;;
79373;SDS011;68844;53.128;17.958;2023-09-07T13:00:28;0.90;;;0.70;;
79373;SDS011;68844;53.128;17.958;2023-09-07T13:02:55;2.80;;;0.90;;
79373;SDS011;68844;53.128;17.958;2023-09-07T13:05:22;2.00;;;1.00;;
79373;SDS011;68844;53.128;17.958;2023-09-07T13:07:49;1.00;;;0.80;;
79373;SDS011;68844;53.128;17.958;2023-09-07T13:10:16;2.20;;;1.20;;
79373;SDS011;68844;53.128;17.958;2023-09-07T13:12:42;3.30;;;0.90;;
79373;SDS011;68844;53.128;17.958;2023-09-07T13:15:09;0.90;;;0.70;;
79373;SDS011;68844;53.128;17.958;2023-09-07T13:17:36;1.00;;;0.90;;
79373;SDS011;68844;53.128;17.958;2023-09-07T13:20:03;3.50;;;1.10;;
79373;SDS011;68844;53.128;17.958;2023-09-07T13:22:30;1.80;;;0.70;;
79373;SDS011;68844;53.128;17.958;2023-09-07T13:24:57;1.50;;;0.80;;
79373;SDS011;68844;53.128;17.958;2023-09-07T13:27:23;2.30;;;0.90;;
79373;SDS011;68844;53.128;17.958;2023-09-07T13:29:52;2.30;;;1.10;;
79373;SDS011;68844;53.128;17.958;2023-09-07T13:32:18;1.10;;;0.90;;
79373;SDS011;68844;53.128;17.958;2023-09-07T13:34:45;2.20;;;1.30;;
79373;SDS011;68844;53.128;17.958;2023-09-07T13:37:11;1.60;;;1.00;;
79373;SDS011;68844;53.128;17.958;2023-09-07T13:39:38;2.20;;;1.20;;
79373;SDS011;68844;53.128;17.958;2023-09-07T13:42:05;1.70;;;1.00;;
79373;SDS011;68844;53.128;17.958;2023-09-07T13:44:31;1.80;;;1.20;;
79373;SDS011;68844;53.128;17.958;2023-09-07T13:46:58;3.10;;;1.40;;
79373;SDS011;68844;53.128;17.958;2023-09-07T13:49:24;1.20;;;0.90;;
79373;SDS011;68844;53.128;17.958;2023-09-07T13:51:51;1.60;;;1.00;;
79373;SDS011;68844;53.128;17.958;2023-09-07T13:54:18;0.90;;;0.70;;
79373;SDS011;68844;53.128;17.958;2023-09-07T13:56:45;2.40;;;1.00;;
79373;SDS011;68844;53.128;17.958;2023-09-07T13:59:13;2.10;;;0.80;;
79373;SDS011;68844;53.128;17.958;2023-09-07T14:01:39;1.90;;;1.30;;
79373;SDS011;68844;53.128;17.958;2023-09-07T14:04:06;1.30;;;0.90;;
79373;SDS011;68844;53.128;17.958;2023-09-07T14:06:33;1.00;;;0.80;;
79373;SDS011;68844;53.128;17.958;2023-09-07T14:08:59;1.50;;;0.90;;
79373;SDS011;68844;53.128;17.958;2023-09-07T14:11:26;2.30;;;1.00;;
79373;SDS011;68844;53.128;17.958;2023-09-07T14:13:52;1.50;;;0.90;;
79373;SDS011;68844;53.128;17.958;2023-09-07T14:16:21;2.60;;;1.30;;
79373;SDS011;68844;53.128;17.958;2023-09-07T14:18:48;1.40;;;1.00;;
79373;SDS011;68844;53.128;17.958;2023-09-07T14:21:15;1.20;;;0.80;;
79373;SDS011;68844;53.128;17.958;2023-09-07T14:23:43;1.40;;;1.00;;
79373;SDS011;68844;53.128;17.958;2023-09-07T14:26:10;1.30;;;0.80;;
79373;SDS011;68844;53.128;17.958;2023-09-07T14:28:37;1.60;;;0.90;;
79373;SDS011;68844;53.128;17.958;2023-09-07T14:31:07;2.60;;;0.80;;
79373;SDS011;68844;53.128;17.958;2023-09-07T14:33:34;3.10;;;1.20;;
79373;SDS011;68844;53.128;17.958;2023-09-07T14:36:05;0.80;;;0.70;;
79373;SDS011;68844;53.128;17.958;2023-09-07T14:38:33;0.80;;;0.60;;
79373;SDS011;68844;53.128;17.958;2023-09-07T14:41:06;2.00;;;0.90;;
79373;SDS011;68844;53.128;17.958;2023-09-07T14:43:37;1.80;;;0.90;;
79373;SDS011;68844;53.128;17.958;2023-09-07T14:46:03;1.40;;;0.90;;
79373;SDS011;68844;53.128;17.958;2023-09-07T14:48:30;1.30;;;0.70;;